Portada
METAR-TAF:

METAR-TAF

Aeropuertos :

Siteki, Suazilandia

latitud: 26-28-20S, longitud: 31-56-34E, altitud: 677 m

Observación

El informe se hizo hace 1 hora y 9 minutos, a las 03:00 UTC
Viento 6 kt del sur
Temperatura 9°C
Humedad 87%
Presión 1019 hPa

METAR: FDST 080300Z AUTO 18006KT //// // ////// 09/07 Q1019

Hora: 06:09 (04:09 UTC)


TAF: falta

Observaciones y pronósticos meteorológicos de más de 4000 aeropuertos (mensajes METAR y TAF).

Los puntos amarillos y rojos representan las estaciones disponibles.

Ponga el ratón en el punto deseado para ver el nombre de la estación.

Haga clic para ver las observaciones y los pronósticos meteorológicos.

Para cambiar el mapa : haga clic en los botones verdes con una cruz de color negro para hacer un zoom, en el botón verde con un guión para alejar o en las flechas verdes para mapas adyacentes.


METAR-TAF: